createdAt,value
2019-05-02T00:00:03.192Z,99.99
2019-05-02T00:01:03.180Z,99.99
2019-05-02T00:02:03.171Z,99.99
2019-05-02T00:03:04.529Z,99.99
2019-05-02T00:04:03.146Z,99.99
2019-05-02T00:05:03.136Z,99.99
2019-05-02T00:06:07.572Z,99.99
2019-05-02T00:07:03.115Z,99.99
2019-05-02T00:08:03.101Z,99.99
2019-05-02T00:09:03.912Z,99.99
2019-05-02T00:10:03.078Z,99.99
2019-05-02T00:11:03.066Z,99.99
2019-05-02T00:12:03.056Z,99.99
2019-05-02T00:13:03.044Z,99.99
2019-05-02T00:14:03.033Z,99.99
2019-05-02T00:15:03.578Z,99.99
2019-05-02T00:16:03.009Z,99.99
2019-05-02T00:17:02.995Z,99.99
2019-05-02T00:18:02.985Z,99.99
2019-05-02T00:19:02.975Z,99.99
2019-05-02T00:20:02.962Z,99.99
2019-05-02T00:21:03.240Z,99.99
2019-05-02T00:22:02.938Z,99.99
2019-05-02T00:23:02.929Z,99.99
2019-05-02T00:24:03.172Z,99.99
2019-05-02T00:25:02.905Z,99.99
2019-05-02T00:26:02.894Z,99.99
2019-05-02T00:27:03.223Z,99.99
2019-05-02T00:28:02.870Z,99.99
2019-05-02T00:29:02.859Z,99.99
2019-05-02T00:30:02.850Z,99.99
2019-05-02T00:31:07.565Z,99.99
2019-05-02T00:32:02.824Z,99.99
2019-05-02T00:33:02.813Z,99.99
2019-05-02T00:34:02.800Z,99.99
2019-05-02T00:35:02.787Z,99.99
2019-05-02T00:36:02.777Z,99.99
2019-05-02T00:37:02.765Z,99.99
2019-05-02T00:38:03.829Z,99.99
2019-05-02T00:39:02.766Z,99.99
2019-05-02T00:40:02.732Z,99.99
2019-05-02T00:41:03.695Z,99.99
2019-05-02T00:42:12.351Z,99.99
2019-05-02T00:43:02.696Z,99.99
2019-05-02T00:44:06.123Z,99.99
2019-05-02T00:45:02.672Z,99.99
2019-05-02T00:46:02.661Z,99.99
2019-05-02T00:47:06.126Z,99.99
2019-05-02T00:48:02.637Z,99.99
2019-05-02T00:49:02.625Z,99.99
2019-05-02T00:50:06.159Z,99.99
2019-05-02T00:51:02.603Z,99.99
2019-05-02T00:52:03.155Z,99.99
2019-05-02T00:53:02.584Z,99.99
2019-05-02T00:54:02.569Z,99.99
2019-05-02T00:55:02.554Z,99.99
2019-05-02T00:56:05.080Z,99.99
2019-05-02T00:57:02.532Z,99.99
2019-05-02T00:58:02.521Z,99.99
2019-05-02T00:59:07.072Z,99.99
2019-05-02T01:00:02.497Z,99.99
2019-05-02T01:01:02.489Z,99.99
2019-05-02T01:02:05.324Z,99.99
2019-05-02T01:03:02.461Z,99.99
2019-05-02T01:04:02.452Z,99.99
2019-05-02T01:05:03.232Z,99.99
2019-05-02T01:06:02.427Z,99.99
2019-05-02T01:07:02.414Z,99.99
2019-05-02T01:08:03.000Z,99.99
2019-05-02T01:09:05.798Z,99.99
2019-05-02T01:10:02.380Z,99.99
2019-05-02T01:11:02.367Z,99.99
2019-05-02T01:12:03.092Z,99.99
2019-05-02T01:13:02.342Z,99.99
2019-05-02T01:14:02.332Z,99.99
2019-05-02T01:15:03.201Z,99.99
2019-05-02T01:16:02.308Z,99.99
2019-05-02T01:17:02.298Z,99.99
2019-05-02T01:18:06.098Z,99.99
2019-05-02T01:19:02.273Z,99.99
2019-05-02T01:20:02.258Z,99.99
2019-05-02T01:21:02.790Z,99.99
2019-05-02T01:22:02.237Z,99.99
2019-05-02T01:23:02.227Z,99.99
2019-05-02T01:24:02.984Z,99.99
2019-05-02T01:25:02.202Z,99.99
2019-05-02T01:26:02.192Z,99.99
2019-05-02T01:27:04.515Z,99.99
2019-05-02T01:28:02.167Z,99.99
2019-05-02T01:29:02.181Z,99.99
2019-05-02T01:30:06.059Z,99.99
2019-05-02T01:31:02.135Z,99.99
2019-05-02T01:32:02.119Z,99.99
2019-05-02T01:33:06.393Z,99.99
2019-05-02T01:34:02.099Z,99.99
2019-05-02T01:35:02.083Z,99.99
2019-05-02T01:36:06.222Z,99.99
2019-05-02T01:37:02.063Z,99.99
2019-05-02T01:38:02.046Z,99.99
2019-05-02T01:39:02.939Z,99.99
2019-05-02T01:40:02.062Z,99.99
2019-05-02T01:41:02.011Z,99.99
2019-05-02T01:42:04.131Z,99.99
2019-05-02T01:43:01.989Z,99.99
2019-05-02T01:44:01.974Z,99.99
2019-05-02T01:45:01.964Z,99.99
2019-05-02T01:46:01.956Z,99.99
2019-05-02T01:47:01.939Z,99.99
2019-05-02T01:48:04.933Z,99.99
2019-05-02T01:49:01.915Z,99.99
2019-05-02T01:50:01.910Z,99.99
2019-05-02T01:51:04.564Z,99.99
2019-05-02T01:52:01.877Z,99.99
2019-05-02T01:53:01.864Z,99.99
2019-05-02T01:54:05.060Z,99.99
2019-05-02T01:55:01.843Z,99.99
2019-05-02T01:56:01.830Z,99.99
2019-05-02T01:57:03.929Z,99.99
2019-05-02T01:58:01.898Z,99.99
2019-05-02T01:59:01.794Z,99.99
2019-05-02T02:00:04.148Z,99.99
2019-05-02T02:01:01.771Z,99.99
2019-05-02T02:02:01.778Z,99.99
2019-05-02T02:03:04.249Z,99.99
2019-05-02T02:04:01.732Z,99.99
2019-05-02T02:05:01.720Z,99.99
2019-05-02T02:06:02.893Z,99.99
2019-05-02T02:07:01.697Z,99.99
2019-05-02T02:08:01.682Z,99.99
2019-05-02T02:09:03.387Z,99.99
2019-05-02T02:10:01.661Z,99.99
2019-05-02T02:11:01.648Z,99.99
2019-05-02T02:12:04.926Z,99.99
2019-05-02T02:13:04.863Z,99.99
2019-05-02T02:14:01.613Z,99.99
2019-05-02T02:15:01.600Z,99.99
2019-05-02T02:16:04.554Z,99.99
2019-05-02T02:17:01.573Z,99.99
2019-05-02T02:18:01.562Z,99.99
2019-05-02T02:19:03.994Z,99.99
2019-05-02T02:20:01.535Z,99.99
2019-05-02T02:21:01.526Z,99.99
2019-05-02T02:22:02.698Z,99.99
2019-05-02T02:23:01.499Z,99.99
2019-05-02T02:24:01.490Z,99.99
2019-05-02T02:25:02.906Z,99.99
2019-05-02T02:26:01.462Z,99.99
2019-05-02T02:27:01.452Z,99.99
2019-05-02T02:28:01.435Z,99.99
2019-05-02T02:29:03.021Z,99.99
2019-05-02T02:30:01.424Z,99.99
2019-05-02T02:31:04.836Z,99.99
2019-05-02T02:32:01.390Z,99.99
2019-05-02T02:33:07.797Z,99.99
2019-05-02T02:34:01.366Z,99.99
2019-05-02T02:35:03.372Z,99.99
2019-05-02T02:36:01.340Z,99.99
2019-05-02T02:37:05.414Z,99.99
2019-05-02T02:38:01.317Z,99.99
2019-05-02T02:39:07.211Z,99.99
2019-05-02T02:40:01.295Z,99.99
2019-05-02T02:41:06.588Z,99.99
2019-05-02T02:42:01.268Z,99.99
2019-05-02T02:43:12.768Z,99.99
2019-05-02T02:44:02.902Z,99.99
2019-05-02T02:45:01.230Z,99.99
2019-05-02T02:46:01.233Z,99.99
2019-05-02T02:47:01.204Z,99.99
2019-05-02T02:48:02.569Z,99.99
2019-05-02T02:49:01.182Z,99.99
2019-05-02T02:50:02.335Z,99.99
2019-05-02T02:51:01.155Z,99.99
2019-05-02T02:52:04.747Z,99.99
2019-05-02T02:53:01.128Z,99.99
2019-05-02T02:54:04.047Z,99.99
2019-05-02T02:55:01.105Z,99.99
2019-05-02T02:56:03.441Z,99.99
2019-05-02T02:57:01.078Z,99.99
2019-05-02T02:58:04.689Z,99.99
2019-05-02T02:59:01.055Z,99.99
2019-05-02T03:00:07.620Z,99.99
2019-05-02T03:01:01.048Z,99.99
2019-05-02T03:02:08.965Z,99.99
2019-05-02T03:03:01.008Z,99.99
2019-05-02T03:04:01.952Z,99.99
2019-05-02T03:05:00.977Z,99.99
2019-05-02T03:06:05.686Z,99.99
2019-05-02T03:07:00.954Z,99.99
2019-05-02T03:08:05.544Z,99.99
2019-05-02T03:09:00.930Z,99.99
2019-05-02T03:10:06.217Z,99.99
2019-05-02T03:11:00.998Z,99.99
2019-05-02T03:12:01.954Z,99.99
2019-05-02T03:13:00.878Z,99.99
2019-05-02T03:14:07.593Z,99.99
2019-05-02T03:15:00.853Z,99.99
2019-05-02T03:16:06.804Z,99.99
2019-05-02T03:17:00.827Z,99.99
2019-05-02T03:18:02.217Z,99.99
2019-05-02T03:19:00.804Z,99.99
2019-05-02T03:20:03.560Z,99.99
2019-05-02T03:21:00.787Z,99.99
2019-05-02T03:22:03.423Z,99.99
2019-05-02T03:23:00.754Z,99.99
2019-05-02T03:24:03.387Z,99.99
2019-05-02T03:25:00.744Z,99.99
2019-05-02T03:26:00.716Z,99.99
2019-05-02T03:27:00.703Z,99.99
2019-05-02T03:28:00.692Z,99.99
2019-05-02T03:29:00.982Z,99.99
2019-05-02T03:30:00.667Z,99.99
2019-05-02T03:31:11.218Z,99.99
2019-05-02T03:32:13.422Z,99.99
2019-05-02T03:33:09.697Z,99.99
2019-05-02T03:34:01.462Z,99.99
2019-05-02T03:35:00.602Z,99.99
2019-05-02T03:36:00.606Z,99.99
2019-05-02T03:37:03.320Z,99.99
2019-05-02T03:38:00.568Z,99.99
2019-05-02T03:39:06.624Z,99.99
2019-05-02T03:40:00.868Z,99.99
2019-05-02T03:41:00.527Z,99.99
2019-05-02T03:42:03.123Z,99.99
2019-05-02T03:43:00.501Z,99.99
2019-05-02T03:44:10.507Z,99.99
2019-05-02T03:45:04.808Z,99.99
2019-05-02T03:46:00.493Z,99.99
2019-05-02T03:47:02.296Z,99.99
2019-05-02T03:48:00.439Z,99.99
2019-05-02T03:49:07.367Z,99.99
2019-05-02T03:50:00.415Z,99.99
2019-05-02T03:51:04.675Z,99.99
2019-05-02T03:52:02.644Z,99.99
2019-05-02T03:53:00.394Z,99.99
2019-05-02T03:54:07.292Z,99.99
2019-05-02T03:55:00.360Z,99.99
2019-05-02T03:56:10.687Z,99.99
2019-05-02T03:57:00.325Z,99.99
2019-05-02T03:58:00.320Z,99.99
2019-05-02T03:59:00.324Z,99.99
2019-05-02T04:00:00.301Z,99.99
2019-05-02T04:01:03.565Z,99.99
2019-05-02T04:02:00.262Z,99.99
2019-05-02T04:03:02.374Z,99.99
2019-05-02T04:04:00.238Z,99.99
2019-05-02T04:05:02.551Z,99.99
2019-05-02T04:06:00.209Z,99.99
2019-05-02T04:07:01.184Z,99.99
2019-05-02T04:08:00.189Z,99.99
2019-05-02T04:09:01.891Z,99.99
2019-05-02T04:10:00.161Z,99.99
2019-05-02T04:11:01.861Z,99.99
2019-05-02T04:12:00.134Z,99.99
2019-05-02T04:13:00.165Z,99.99
2019-05-02T04:14:00.113Z,99.99
2019-05-02T04:15:00.098Z,99.99
2019-05-02T04:16:00.085Z,99.99
2019-05-02T04:17:00.072Z,99.99
2019-05-02T04:18:00.061Z,99.99
2019-05-02T04:19:00.047Z,99.99
2019-05-02T04:20:00.031Z,99.99
2019-05-02T04:21:00.022Z,99.99
2019-05-02T04:22:01.453Z,99.99
2019-05-02T04:22:59.997Z,99.99
2019-05-02T04:24:59.982Z,99.99
2019-05-02T04:25:59.956Z,99.99
2019-05-02T04:26:59.948Z,99.99
2019-05-02T04:27:59.940Z,99.99
2019-05-02T04:28:59.921Z,99.99
2019-05-02T04:30:09.744Z,99.99
2019-05-02T04:30:59.896Z,99.99
2019-05-02T04:32:04.561Z,99.99
2019-05-02T04:32:59.868Z,99.99
2019-05-02T04:33:59.855Z,99.99
2019-05-02T04:34:59.848Z,99.99
2019-05-02T04:35:59.836Z,99.99
2019-05-02T04:37:03.413Z,99.99
2019-05-02T04:38:02.720Z,99.99
2019-05-02T04:39:05.521Z,99.99
2019-05-02T04:40:03.230Z,99.99
2019-05-02T04:40:59.770Z,99.99
2019-05-02T04:42:05.201Z,99.99
2019-05-02T04:43:02.155Z,99.99
2019-05-02T04:44:01.561Z,99.99
2019-05-02T04:45:13.940Z,99.99
2019-05-02T04:46:00.308Z,99.99
2019-05-02T04:47:09.942Z,99.99
2019-05-02T04:48:03.918Z,99.99
2019-05-02T04:48:59.669Z,99.99
2019-05-02T04:49:59.669Z,99.99
2019-05-02T04:51:10.260Z,99.99
2019-05-02T04:52:06.387Z,99.99
2019-05-02T04:52:59.628Z,99.99
2019-05-02T04:53:59.614Z,99.99
2019-05-02T04:55:08.351Z,98.90
2019-05-02T04:56:04.321Z,97.46
2019-05-02T04:57:02.360Z,96.70
2019-05-02T04:58:01.808Z,97.80
2019-05-02T04:59:01.872Z,99.22
2019-05-02T05:00:06.231Z,99.99
2019-05-02T05:01:01.825Z,99.89
2019-05-02T05:02:01.390Z,99.99
2019-05-02T05:02:59.524Z,99.99
2019-05-02T05:04:03.211Z,99.99
2019-05-02T05:04:59.504Z,99.99
2019-05-02T05:06:07.151Z,99.99
2019-05-02T05:07:01.239Z,98.42
2019-05-02T05:07:59.471Z,97.17
2019-05-02T05:09:04.209Z,97.27
2019-05-02T05:10:03.010Z,97.08
2019-05-02T05:10:59.439Z,94.32
2019-05-02T05:12:02.562Z,94.32
2019-05-02T05:12:59.420Z,95.65
2019-05-02T05:14:00.412Z,95.27
2019-05-02T05:15:00.466Z,95.17
2019-05-02T05:16:02.924Z,96.41
2019-05-02T05:16:59.378Z,96.80
2019-05-02T05:17:59.368Z,96.13
2019-05-02T05:19:00.096Z,97.17
2019-05-02T05:20:00.161Z,98.51
2019-05-02T05:20:59.334Z,96.80
2019-05-02T05:22:04.660Z,95.84
2019-05-02T05:22:59.316Z,95.94
2019-05-02T05:24:01.362Z,95.94
2019-05-02T05:24:59.295Z,94.60
2019-05-02T05:26:03.442Z,95.94
2019-05-02T05:27:00.151Z,95.84
2019-05-02T05:28:05.542Z,95.98
2019-05-02T05:28:59.254Z,94.17
2019-05-02T05:30:07.481Z,95.03
2019-05-02T05:30:59.235Z,94.56
2019-05-02T05:32:05.402Z,95.70
2019-05-02T05:32:59.216Z,95.61
2019-05-02T05:33:59.211Z,94.27
2019-05-02T05:35:03.277Z,93.98
2019-05-02T05:35:59.187Z,95.22
2019-05-02T05:37:03.736Z,94.17
2019-05-02T05:37:59.168Z,94.74
2019-05-02T05:39:03.022Z,93.31
2019-05-02T05:39:59.143Z,90.64
2019-05-02T05:41:03.075Z,92.50
2019-05-02T05:41:59.127Z,91.98
2019-05-02T05:43:02.727Z,90.11
2019-05-02T05:43:59.109Z,88.97
2019-05-02T05:45:03.924Z,89.16
2019-05-02T05:46:09.351Z,90.02
2019-05-02T05:46:59.080Z,90.11
2019-05-02T05:48:01.066Z,91.55
2019-05-02T05:48:59.059Z,88.44
2019-05-02T05:50:01.002Z,88.11
2019-05-02T05:50:59.041Z,87.25
2019-05-02T05:52:02.297Z,88.54
2019-05-02T05:52:59.553Z,88.92
2019-05-02T05:54:03.011Z,88.34
2019-05-02T05:54:59.009Z,88.06
2019-05-02T05:56:02.451Z,85.48
2019-05-02T05:56:58.981Z,85.19
2019-05-02T05:58:03.192Z,86.34
2019-05-02T05:58:59.307Z,86.63
2019-05-02T06:00:03.852Z,86.19
2019-05-02T06:00:58.949Z,85.96
2019-05-02T06:01:58.936Z,83.42
2019-05-02T06:03:09.976Z,84.38
2019-05-02T06:03:58.914Z,84.09
2019-05-02T06:05:02.104Z,83.42
2019-05-02T06:05:58.897Z,82.65
2019-05-02T06:07:02.940Z,83.42
2019-05-02T06:07:58.881Z,84.19
2019-05-02T06:08:58.870Z,83.42
2019-05-02T06:10:02.241Z,82.46
2019-05-02T06:10:58.856Z,80.36
2019-05-02T06:11:58.844Z,80.07
2019-05-02T06:12:58.835Z,80.55
2019-05-02T06:13:58.829Z,81.03
2019-05-02T06:15:01.927Z,82.41
2019-05-02T06:16:02.554Z,80.98
2019-05-02T06:16:58.805Z,80.11
2019-05-02T06:18:00.057Z,80.11
2019-05-02T06:18:58.784Z,80.21
2019-05-02T06:19:58.776Z,79.06
2019-05-02T06:21:03.300Z,78.97
2019-05-02T06:21:58.758Z,78.78
2019-05-02T06:23:00.070Z,79.25
2019-05-02T06:23:58.740Z,78.49
2019-05-02T06:24:58.734Z,78.20
2019-05-02T06:25:58.733Z,77.25
2019-05-02T06:26:58.713Z,78.97
2019-05-02T06:28:00.207Z,77.86
2019-05-02T06:28:58.699Z,77.76
2019-05-02T06:29:58.687Z,77.95
2019-05-02T06:31:02.250Z,78.14
2019-05-02T06:31:58.673Z,77.86
2019-05-02T06:32:58.663Z,77.67
2019-05-02T06:34:02.209Z,78.34
2019-05-02T06:34:58.644Z,77.09
2019-05-02T06:36:01.478Z,77.19
2019-05-02T06:36:58.630Z,76.27
2019-05-02T06:37:58.623Z,76.18
2019-05-02T06:38:58.615Z,75.12
2019-05-02T06:40:03.141Z,75.31
2019-05-02T06:40:58.599Z,75.31
2019-05-02T06:41:58.715Z,75.89
2019-05-02T06:42:58.583Z,75.79
2019-05-02T06:43:58.570Z,75.31
2019-05-02T06:44:59.713Z,74.84
2019-05-02T06:45:58.558Z,74.26
2019-05-02T06:46:59.250Z,73.69
2019-05-02T06:48:01.118Z,73.59
2019-05-02T06:48:58.534Z,74.45
2019-05-02T06:50:01.191Z,74.07
2019-05-02T06:50:58.527Z,73.34
2019-05-02T06:51:58.508Z,73.44
2019-05-02T06:52:58.502Z,72.19
2019-05-02T06:53:58.494Z,71.81
2019-05-02T06:54:59.160Z,73.69
2019-05-02T06:55:58.479Z,73.44
2019-05-02T06:56:58.483Z,72.29
2019-05-02T06:58:02.907Z,72.96
2019-05-02T06:58:58.457Z,72.77
2019-05-02T06:59:58.449Z,74.40
2019-05-02T07:00:59.117Z,74.11
2019-05-02T07:01:58.807Z,73.44
2019-05-02T07:02:58.426Z,73.66
2019-05-02T07:03:58.417Z,71.56
2019-05-02T07:04:58.410Z,70.98
2019-05-02T07:06:02.425Z,70.79
2019-05-02T07:06:59.754Z,70.98
2019-05-02T07:07:58.409Z,69.93
2019-05-02T07:08:59.705Z,69.54
2019-05-02T07:09:58.381Z,69.35
2019-05-02T07:11:01.548Z,70.70
2019-05-02T07:12:01.385Z,70.79
2019-05-02T07:13:10.167Z,69.07
2019-05-02T07:14:11.811Z,69.74
2019-05-02T07:15:01.519Z,68.97
2019-05-02T07:15:58.333Z,68.78
2019-05-02T07:16:58.324Z,69.68
2019-05-02T07:17:58.328Z,69.20
2019-05-02T07:18:58.313Z,68.24
2019-05-02T07:19:58.869Z,69.68
2019-05-02T07:20:58.298Z,67.85
2019-05-02T07:22:00.377Z,68.27
2019-05-02T07:22:58.282Z,67.69
2019-05-02T07:23:58.271Z,67.22
2019-05-02T07:25:01.942Z,66.83
2019-05-02T07:26:00.238Z,67.89
2019-05-02T07:26:58.255Z,67.25
2019-05-02T07:27:58.243Z,67.02
2019-05-02T07:28:58.240Z,65.52
2019-05-02T07:29:59.673Z,65.59
2019-05-02T07:30:58.226Z,66.00
2019-05-02T07:31:58.219Z,66.39
2019-05-02T07:33:01.226Z,65.88
2019-05-02T07:33:58.203Z,66.26
2019-05-02T07:34:58.194Z,66.64
2019-05-02T07:36:00.096Z,67.22
2019-05-02T07:36:58.184Z,66.74
2019-05-02T07:37:58.178Z,66.83
2019-05-02T07:39:04.967Z,67.22
2019-05-02T07:39:58.162Z,66.93
2019-05-02T07:40:58.155Z,66.45
2019-05-02T07:42:00.609Z,67.41
2019-05-02T07:42:58.145Z,66.45
2019-05-02T07:43:58.134Z,65.88
2019-05-02T07:44:58.127Z,64.85
2019-05-02T07:45:58.122Z,64.76
2019-05-02T07:47:02.628Z,64.66
2019-05-02T07:48:01.220Z,64.66
2019-05-02T07:48:58.104Z,66.39
2019-05-02T07:49:58.096Z,65.81
2019-05-02T07:50:58.092Z,65.43
2019-05-02T07:51:58.987Z,64.95
2019-05-02T07:52:58.076Z,64.31
2019-05-02T07:53:58.074Z,64.79
2019-05-02T07:55:01.096Z,63.06
2019-05-02T07:55:58.057Z,63.64
2019-05-02T07:56:58.051Z,63.06
2019-05-02T07:58:02.032Z,63.16
2019-05-02T07:58:58.038Z,63.35
2019-05-02T08:00:00.606Z,62.68
2019-05-02T08:00:58.028Z,62.68
2019-05-02T08:01:58.025Z,62.19
2019-05-02T08:02:59.362Z,63.06
2019-05-02T08:04:04.007Z,63.25
2019-05-02T08:04:58.005Z,62.58
2019-05-02T08:05:58.549Z,62.52
2019-05-02T08:06:57.989Z,63.28
2019-05-02T08:07:57.983Z,62.42
2019-05-02T08:09:01.702Z,62.99
2019-05-02T08:09:58.002Z,62.13
2019-05-02T08:11:01.818Z,62.32
2019-05-02T08:11:57.976Z,61.65
2019-05-02T08:12:57.955Z,61.55
2019-05-02T08:14:00.463Z,61.68
2019-05-02T08:15:00.301Z,62.26
2019-05-02T08:15:57.935Z,61.40
2019-05-02T08:17:05.496Z,61.17
2019-05-02T08:17:57.922Z,61.68
2019-05-02T08:19:01.398Z,62.55
2019-05-02T08:19:57.913Z,60.91
2019-05-02T08:20:57.908Z,59.76
2019-05-02T08:21:57.902Z,59.99
2019-05-02T08:22:57.895Z,59.02
2019-05-02T08:24:02.329Z,59.31
2019-05-02T08:24:57.883Z,59.28
2019-05-02T08:25:57.877Z,59.60
2019-05-02T08:26:58.246Z,59.60
2019-05-02T08:27:57.870Z,58.45
2019-05-02T08:28:57.864Z,58.35
2019-05-02T08:30:00.113Z,58.35
2019-05-02T08:30:57.850Z,58.54
2019-05-02T08:31:57.846Z,57.99
2019-05-02T08:32:57.842Z,57.42
2019-05-02T08:33:57.834Z,56.65
2019-05-02T08:34:57.830Z,56.65
2019-05-02T08:35:57.824Z,56.07
2019-05-02T08:36:58.911Z,55.98
2019-05-02T08:37:57.815Z,57.22
2019-05-02T08:38:57.815Z,56.58
2019-05-02T08:39:57.803Z,56.00
2019-05-02T08:40:57.803Z,55.90
2019-05-02T08:41:57.947Z,56.10
2019-05-02T08:42:57.787Z,55.81
2019-05-02T08:43:57.787Z,56.29
2019-05-02T08:45:00.968Z,56.10
2019-05-02T08:45:57.776Z,56.48
2019-05-02T08:46:57.768Z,56.38
2019-05-02T08:48:00.243Z,56.77
2019-05-02T08:48:57.759Z,56.20
2019-05-02T08:49:57.757Z,56.00
2019-05-02T08:50:57.749Z,55.81
2019-05-02T08:51:57.748Z,55.81
2019-05-02T08:52:57.740Z,55.62
2019-05-02T08:53:58.691Z,55.52
2019-05-02T08:54:57.731Z,55.93
2019-05-02T08:55:57.727Z,55.65
2019-05-02T08:56:59.104Z,55.35
2019-05-02T08:57:57.715Z,54.39
2019-05-02T08:58:57.715Z,54.78
2019-05-02T09:00:00.213Z,54.30
2019-05-02T09:00:57.703Z,54.39
2019-05-02T09:01:57.699Z,54.78
2019-05-02T09:03:02.747Z,55.93
2019-05-02T09:03:57.691Z,54.17
2019-05-02T09:04:58.990Z,54.36
2019-05-02T09:06:05.638Z,55.23
2019-05-02T09:06:58.733Z,56.38
2019-05-02T09:07:57.671Z,56.12
2019-05-02T09:08:57.666Z,54.68
2019-05-02T09:10:00.263Z,53.91
2019-05-02T09:10:57.657Z,54.10
2019-05-02T09:12:11.437Z,54.68
2019-05-02T09:12:57.648Z,53.72
2019-05-02T09:13:57.643Z,54.39
2019-05-02T09:14:57.639Z,53.62
2019-05-02T09:15:57.636Z,54.10
2019-05-02T09:17:00.194Z,53.43
2019-05-02T09:17:57.626Z,53.65
2019-05-02T09:18:57.619Z,52.40
2019-05-02T09:20:02.386Z,52.69
2019-05-02T09:20:57.613Z,53.36
2019-05-02T09:21:57.608Z,53.27
2019-05-02T09:22:57.604Z,52.11
2019-05-02T09:23:57.601Z,51.92
2019-05-02T09:24:57.597Z,52.40
2019-05-02T09:25:57.593Z,52.40
2019-05-02T09:26:57.588Z,52.40
2019-05-02T09:27:57.585Z,52.30
2019-05-02T09:29:01.624Z,53.48
2019-05-02T09:29:57.575Z,52.61
2019-05-02T09:31:02.272Z,52.61
2019-05-02T09:31:57.566Z,53.84
2019-05-02T09:33:02.826Z,53.65
2019-05-02T09:33:57.618Z,53.36
2019-05-02T09:35:02.116Z,52.40
2019-05-02T09:35:57.547Z,52.30
2019-05-02T09:36:57.542Z,53.07
2019-05-02T09:37:57.540Z,53.27
2019-05-02T09:38:57.787Z,52.40
2019-05-02T09:39:57.534Z,52.01
2019-05-02T09:40:57.529Z,51.82
2019-05-02T09:41:57.524Z,51.82
2019-05-02T09:43:01.939Z,52.59
2019-05-02T09:43:57.517Z,53.45
2019-05-02T09:44:57.513Z,52.59
2019-05-02T09:45:57.506Z,53.27
2019-05-02T09:46:57.552Z,52.30
2019-05-02T09:48:05.251Z,52.30
2019-05-02T09:49:04.347Z,53.74
2019-05-02T09:49:57.492Z,52.78
2019-05-02T09:50:58.075Z,51.94
2019-05-02T09:51:59.763Z,52.42
2019-05-02T09:52:57.475Z,52.52
2019-05-02T09:54:02.658Z,52.13
2019-05-02T09:54:57.469Z,51.46
2019-05-02T09:55:58.129Z,51.07
2019-05-02T09:56:57.460Z,50.40
2019-05-02T09:57:57.457Z,50.21
2019-05-02T09:59:04.789Z,50.30
2019-05-02T09:59:57.449Z,49.53
2019-05-02T10:00:57.442Z,49.51
2019-05-02T10:01:57.440Z,50.27
2019-05-02T10:02:57.437Z,49.51
2019-05-02T10:03:57.435Z,51.21
2019-05-02T10:04:57.434Z,51.79
2019-05-02T10:05:57.425Z,53.05
2019-05-02T10:06:57.424Z,53.74
2019-05-02T10:08:02.091Z,54.13
2019-05-02T10:08:57.418Z,52.69
2019-05-02T10:09:57.628Z,52.78
2019-05-02T10:10:57.406Z,52.49
2019-05-02T10:11:57.423Z,50.85
2019-05-02T10:12:57.410Z,51.34
2019-05-02T10:13:57.398Z,51.94
2019-05-02T10:14:57.399Z,50.27
2019-05-02T10:15:57.394Z,51.43
2019-05-02T10:16:57.647Z,50.73
2019-05-02T10:18:08.850Z,53.91
2019-05-02T10:19:00.316Z,53.91
2019-05-02T10:19:57.404Z,53.17
2019-05-02T10:20:57.362Z,52.69
2019-05-02T10:21:57.366Z,50.47
2019-05-02T10:22:57.353Z,50.95
2019-05-02T10:23:59.554Z,52.30
2019-05-02T10:24:57.349Z,50.98
2019-05-02T10:25:57.344Z,49.89
2019-05-02T10:27:04.025Z,49.19
2019-05-02T10:27:57.338Z,51.05
2019-05-02T10:28:57.332Z,51.43
2019-05-02T10:30:01.907Z,50.49
2019-05-02T10:30:57.375Z,49.53
2019-05-02T10:31:57.319Z,49.55
2019-05-02T10:32:57.457Z,48.66
2019-05-02T10:33:57.308Z,48.28
2019-05-02T10:34:57.306Z,48.64
2019-05-02T10:35:57.299Z,49.58
2019-05-02T10:36:58.866Z,50.51
2019-05-02T10:37:57.292Z,51.38
2019-05-02T10:38:59.253Z,50.90
2019-05-02T10:39:57.286Z,52.15
2019-05-02T10:41:01.504Z,52.73
2019-05-02T10:41:57.668Z,52.27
2019-05-02T10:42:57.271Z,51.19
2019-05-02T10:43:59.514Z,51.76
2019-05-02T10:44:57.261Z,51.38
2019-05-02T10:45:57.261Z,52.06
2019-05-02T10:46:57.255Z,52.12
2019-05-02T10:47:57.252Z,52.51
2019-05-02T10:48:57.248Z,52.83
2019-05-02T10:49:57.239Z,53.88
2019-05-02T10:50:57.237Z,52.54
2019-05-02T10:51:57.232Z,50.73
2019-05-02T10:52:57.231Z,50.93
2019-05-02T10:53:57.224Z,51.43
2019-05-02T10:54:57.222Z,52.69
2019-05-02T10:55:57.215Z,51.75
2019-05-02T10:56:57.208Z,50.30
2019-05-02T10:57:57.205Z,48.16
2019-05-02T10:58:57.201Z,49.22
2019-05-02T10:59:57.197Z,51.14
2019-05-02T11:00:57.194Z,49.32
2019-05-02T11:01:57.189Z,49.43
2019-05-02T11:02:57.186Z,47.00
2019-05-02T11:03:57.180Z,47.97
2019-05-02T11:04:57.175Z,47.00
2019-05-02T11:05:57.959Z,46.71
2019-05-02T11:06:57.169Z,46.42
2019-05-02T11:08:04.639Z,48.44
2019-05-02T11:08:57.160Z,46.55
2019-05-02T11:10:02.138Z,45.27
2019-05-02T11:10:57.150Z,45.97
2019-05-02T11:11:57.148Z,44.71
2019-05-02T11:12:57.142Z,45.00
2019-05-02T11:14:00.439Z,45.99
2019-05-02T11:14:57.144Z,43.55
2019-05-02T11:15:57.140Z,42.28
2019-05-02T11:16:57.126Z,44.98
2019-05-02T11:17:57.120Z,44.67
2019-05-02T11:18:57.119Z,46.01
2019-05-02T11:19:57.111Z,45.44
2019-05-02T11:20:59.090Z,46.62
2019-05-02T11:21:59.058Z,46.81
2019-05-02T11:22:57.098Z,46.62
2019-05-02T11:23:57.278Z,46.81
2019-05-02T11:24:57.090Z,45.97
2019-05-02T11:25:57.087Z,45.29
2019-05-02T11:26:57.083Z,44.13
2019-05-02T11:27:57.329Z,44.98
2019-05-02T11:28:57.076Z,44.52
2019-05-02T11:29:57.068Z,43.82
2019-05-02T11:31:01.506Z,45.25
2019-05-02T11:31:57.061Z,46.98
2019-05-02T11:32:57.059Z,46.88
2019-05-02T11:33:57.053Z,48.33
2019-05-02T11:34:57.047Z,47.29
2019-05-02T11:35:57.043Z,44.96
2019-05-02T11:36:57.038Z,44.86
2019-05-02T11:37:57.034Z,44.93
2019-05-02T11:39:05.724Z,46.28
2019-05-02T11:40:00.177Z,45.51
2019-05-02T11:40:57.022Z,45.73
2019-05-02T11:41:57.022Z,46.88
2019-05-02T11:43:01.453Z,46.88
2019-05-02T11:43:57.007Z,45.80
2019-05-02T11:44:57.009Z,47.75
2019-05-02T11:46:02.401Z,49.48
2019-05-02T11:46:56.996Z,49.48
2019-05-02T11:48:03.372Z,49.87
2019-05-02T11:48:58.699Z,49.12
2019-05-02T11:49:56.989Z,48.83
2019-05-02T11:50:58.164Z,49.12
2019-05-02T11:51:57.332Z,49.70
2019-05-02T11:52:56.965Z,48.44
2019-05-02T11:53:59.272Z,48.25
2019-05-02T11:54:56.958Z,47.97
2019-05-02T11:55:58.355Z,48.16
2019-05-02T11:56:56.950Z,47.39
2019-05-02T11:58:01.063Z,47.94
2019-05-02T11:58:56.942Z,49.19
2019-05-02T11:59:59.494Z,49.29
2019-05-02T12:00:56.933Z,49.87
2019-05-02T12:01:59.999Z,51.70
2019-05-02T12:02:58.366Z,53.88
2019-05-02T12:03:56.917Z,53.98
2019-05-02T12:04:56.914Z,56.77
2019-05-02T12:05:56.911Z,59.72
2019-05-02T12:07:01.065Z,62.03
2019-05-02T12:08:02.603Z,64.60
2019-05-02T12:08:56.893Z,66.71
2019-05-02T12:09:57.351Z,69.21
2019-05-02T12:10:56.885Z,70.07
2019-05-02T12:11:56.882Z,70.46
2019-05-02T12:12:56.872Z,72.25
2019-05-02T12:13:57.179Z,73.02
2019-05-02T12:14:56.865Z,72.34
2019-05-02T12:15:56.859Z,75.62
2019-05-02T12:16:56.854Z,76.96
2019-05-02T12:17:56.850Z,75.00
2019-05-02T12:19:08.672Z,78.55
2019-05-02T12:19:56.839Z,77.98
2019-05-02T12:20:56.833Z,76.06
2019-05-02T12:21:56.833Z,76.54
2019-05-02T12:22:56.825Z,78.36
2019-05-02T12:23:56.816Z,79.22
2019-05-02T12:24:56.826Z,79.13
2019-05-02T12:25:56.805Z,80.28
2019-05-02T12:26:56.799Z,79.99
2019-05-02T12:27:56.795Z,83.26
2019-05-02T12:28:56.787Z,84.12
2019-05-02T12:29:59.245Z,83.07
2019-05-02T12:30:56.780Z,83.64
2019-05-02T12:31:56.771Z,85.14
2019-05-02T12:32:56.766Z,84.12
2019-05-02T12:33:56.761Z,82.35
2019-05-02T12:34:56.753Z,82.45
2019-05-02T12:35:56.749Z,81.20
2019-05-02T12:36:56.741Z,84.66
2019-05-02T12:37:56.738Z,83.03
2019-05-02T12:38:56.731Z,82.26
2019-05-02T12:39:56.723Z,82.35
2019-05-02T12:40:58.012Z,80.53
2019-05-02T12:41:57.040Z,81.07
2019-05-02T12:42:56.709Z,79.57
2019-05-02T12:43:56.701Z,80.73
2019-05-02T12:44:56.695Z,81.68
2019-05-02T12:45:56.689Z,81.20
2019-05-02T12:46:56.681Z,79.57
2019-05-02T12:47:56.677Z,79.57
2019-05-02T12:48:56.673Z,80.91
2019-05-02T12:49:56.663Z,78.61
2019-05-02T12:50:56.660Z,75.63
2019-05-02T12:51:56.651Z,76.94
2019-05-02T12:52:56.725Z,76.88